Nur fliegen ist schöner ....

Willkommen beim Flugservice Bautzen GmbH

Wir sind eine nach europäischen Richtlinien zugelassene Flugschule und lizenziertes Luftfahrtunternehmen. Bei uns können sie nicht nur Rundflüge über die Oberlausitz oder Sachsen buchen, sondern in unserer Flugschule selber das Fliegen erlernen. Erfahrene Fluglehrer stehen ihnen dabei zur Seite.

Wir bieten Ihnen außerdem spezielle Flüge zur Vermessung oder Fotoflüge für Luftbildaufnahmen an. In Zusammenarbeit mit dem Fallschirmsportclub Dresden und dem Cottbuser Fallschirmsportclub setzen wir am Flugplatz Bautzen und Neuhausen Fallschirmspringer ab.
Schauen sie sich in Ruhe bei uns um und wenn sie Fragen haben oder weitere Informationen benötigen, scheuen sie sich nicht Kontakt mit uns aufzunehmen.

Rundflüge können sie ganz leicht auch online in unserem Shop buchen.

Terminkalender

Letzter Monat November 2018 Nächster Monat
Mo Di Mi Do Fr Sa So
week 44 1 2 3 4
week 45 5 6 7 8 9 10 11
week 46 12 13 14 15 16 17 18
week 47 19 20 21 22 23 24 25
week 48 26 27 28 29 30

Flugwetterinfo

[Quelle: ADDS]
METAR
EDDC 150150Z 15004KT CAVOK 02/01 Q1029 =
EDDC 142300Z 1500/1524 14007KT CAVOK
TAF
EDDC 142300Z 1500/1524 14007KT CAVOK =
SR / SS: 06:18 / 15:14 UTC (EDAB Flugplatz Bautzen 2018-11-15)
Flugservice Bautzen GmbH, Kornmarkt 34, 02625 Bautzen  Telefon: +49 (3591) 211105, Telefax: +49 (3591) 274512, E-Mail:  flugservice(at)fsbautzen.de